sensor_id;sensor_type;location;lat;lon;timestamp;pressure;altitude;pressure_sealevel;temperature;humidity
31717;BME280;18301;51.076;17.046;2023-04-08T00:01:57;100359.22;;;6.77;95.37
31717;BME280;18301;51.076;17.046;2023-04-08T00:06:58;100346.78;;;6.76;95.42
31717;BME280;18301;51.076;17.046;2023-04-08T00:12:00;100355.06;;;6.71;95.96
31717;BME280;18301;51.076;17.046;2023-04-08T00:17:02;100361.16;;;6.75;95.77
31717;BME280;18301;51.076;17.046;2023-04-08T00:22:03;100355.19;;;6.69;95.53
31717;BME280;18301;51.076;17.046;2023-04-08T00:27:05;100361.22;;;6.73;95.47
31717;BME280;18301;51.076;17.046;2023-04-08T00:32:06;100367.63;;;6.71;95.40
31717;BME280;18301;51.076;17.046;2023-04-08T00:37:08;100364.25;;;6.67;95.37
31717;BME280;18301;51.076;17.046;2023-04-08T00:42:09;100366.88;;;6.68;95.62
31717;BME280;18301;51.076;17.046;2023-04-08T00:47:12;100374.31;;;6.63;96.01
31717;BME280;18301;51.076;17.046;2023-04-08T00:52:13;100370.25;;;6.56;95.73
31717;BME280;18301;51.076;17.046;2023-04-08T00:57:15;100373.19;;;6.52;96.16
31717;BME280;18301;51.076;17.046;2023-04-08T01:07:44;100379.25;;;6.55;96.98
31717;BME280;18301;51.076;17.046;2023-04-08T01:12:56;100381.69;;;6.44;97.40
31717;BME280;18301;51.076;17.046;2023-04-08T01:17:58;100386.59;;;6.52;96.98
31717;BME280;18301;51.076;17.046;2023-04-08T01:23:12;100383.84;;;6.53;97.00
31717;BME280;18301;51.076;17.046;2023-04-08T01:28:17;100392.13;;;6.64;96.14
31717;BME280;18301;51.076;17.046;2023-04-08T01:33:19;100392.75;;;6.54;96.97
31717;BME280;18301;51.076;17.046;2023-04-08T01:38:23;100398.19;;;6.52;96.72
31717;BME280;18301;51.076;17.046;2023-04-08T01:43:27;100407.34;;;6.64;96.94
31717;BME280;18301;51.076;17.046;2023-04-08T01:48:29;100406.31;;;6.66;95.00
31717;BME280;18301;51.076;17.046;2023-04-08T01:53:32;100414.44;;;6.33;96.48
31717;BME280;18301;51.076;17.046;2023-04-08T01:58:38;100408.91;;;6.20;93.87
31717;BME280;18301;51.076;17.046;2023-04-08T02:03:43;100433.25;;;6.00;94.73
31717;BME280;18301;51.076;17.046;2023-04-08T02:08:45;100434.31;;;6.13;92.93
31717;BME280;18301;51.076;17.046;2023-04-08T02:13:47;100437.84;;;5.98;94.59
31717;BME280;18301;51.076;17.046;2023-04-08T02:18:59;100449.94;;;5.88;93.44
31717;BME280;18301;51.076;17.046;2023-04-08T02:24:04;100453.69;;;5.68;93.69
31717;BME280;18301;51.076;17.046;2023-04-08T02:29:12;100459.75;;;5.71;93.75
31717;BME280;18301;51.076;17.046;2023-04-08T02:34:15;100463.25;;;5.89;92.62
31717;BME280;18301;51.076;17.046;2023-04-08T02:39:18;100470.13;;;5.77;93.12
31717;BME280;18301;51.076;17.046;2023-04-08T02:44:19;100466.50;;;5.78;92.76
31717;BME280;18301;51.076;17.046;2023-04-08T02:49:21;100475.97;;;5.68;92.98
31717;BME280;18301;51.076;17.046;2023-04-08T02:54:22;100475.50;;;5.77;92.78
31717;BME280;18301;51.076;17.046;2023-04-08T02:59:25;100486.28;;;5.76;92.84
31717;BME280;18301;51.076;17.046;2023-04-08T03:04:26;100494.94;;;5.81;92.06
31717;BME280;18301;51.076;17.046;2023-04-08T03:09:28;100487.53;;;5.69;92.20
31717;BME280;18301;51.076;17.046;2023-04-08T03:14:29;100508.41;;;5.62;91.77
31717;BME280;18301;51.076;17.046;2023-04-08T03:19:31;100485.28;;;5.61;91.79
31717;BME280;18301;51.076;17.046;2023-04-08T03:24:32;100501.34;;;5.61;91.98
31717;BME280;18301;51.076;17.046;2023-04-08T03:29:34;100499.91;;;5.71;91.03
31717;BME280;18301;51.076;17.046;2023-04-08T03:34:35;100515.50;;;5.63;90.73
31717;BME280;18301;51.076;17.046;2023-04-08T03:39:37;100510.94;;;5.65;89.78
31717;BME280;18301;51.076;17.046;2023-04-08T03:44:38;100516.53;;;5.61;89.95
31717;BME280;18301;51.076;17.046;2023-04-08T03:49:40;100520.09;;;5.61;90.72
31717;BME280;18301;51.076;17.046;2023-04-08T03:54:41;100526.53;;;5.74;89.68
31717;BME280;18301;51.076;17.046;2023-04-08T03:59:43;100537.50;;;5.70;88.42
31717;BME280;18301;51.076;17.046;2023-04-08T04:04:44;100536.69;;;5.50;89.09
31717;BME280;18301;51.076;17.046;2023-04-08T04:09:46;100545.03;;;5.62;88.62
31717;BME280;18301;51.076;17.046;2023-04-08T04:14:47;100541.78;;;5.72;87.33
31717;BME280;18301;51.076;17.046;2023-04-08T04:19:49;100564.31;;;5.68;88.67
31717;BME280;18301;51.076;17.046;2023-04-08T04:24:50;100566.69;;;5.74;88.47
31717;BME280;18301;51.076;17.046;2023-04-08T04:29:52;100576.47;;;5.58;88.75
31717;BME280;18301;51.076;17.046;2023-04-08T04:34:53;100583.69;;;5.56;89.43
31717;BME280;18301;51.076;17.046;2023-04-08T04:39:55;100589.03;;;5.56;89.74
31717;BME280;18301;51.076;17.046;2023-04-08T04:44:56;100601.47;;;5.57;90.27
31717;BME280;18301;51.076;17.046;2023-04-08T04:49:57;100607.00;;;5.71;88.89
31717;BME280;18301;51.076;17.046;2023-04-08T04:55:00;100598.03;;;5.55;89.00
31717;BME280;18301;51.076;17.046;2023-04-08T05:00:02;100609.03;;;5.49;89.34
31717;BME280;18301;51.076;17.046;2023-04-08T05:05:06;100604.72;;;5.81;87.96
31717;BME280;18301;51.076;17.046;2023-04-08T05:10:08;100616.69;;;5.57;88.19
31717;BME280;18301;51.076;17.046;2023-04-08T05:15:11;100635.25;;;5.42;88.19
31717;BME280;18301;51.076;17.046;2023-04-08T05:20:12;100648.66;;;5.60;86.38
31717;BME280;18301;51.076;17.046;2023-04-08T05:25:17;100640.41;;;5.64;86.06
31717;BME280;18301;51.076;17.046;2023-04-08T05:30:20;100661.69;;;5.67;84.67
31717;BME280;18301;51.076;17.046;2023-04-08T05:35:21;100657.38;;;5.46;86.10
31717;BME280;18301;51.076;17.046;2023-04-08T05:40:23;100655.59;;;5.45;85.87
31717;BME280;18301;51.076;17.046;2023-04-08T05:45:24;100664.16;;;5.53;86.05
31717;BME280;18301;51.076;17.046;2023-04-08T05:50:27;100669.06;;;5.62;84.60
31717;BME280;18301;51.076;17.046;2023-04-08T05:55:29;100665.31;;;5.47;84.83
31717;BME280;18301;51.076;17.046;2023-04-08T06:00:30;100676.88;;;5.48;84.80
31717;BME280;18301;51.076;17.046;2023-04-08T06:05:32;100677.03;;;5.64;84.26
31717;BME280;18301;51.076;17.046;2023-04-08T06:10:33;100677.63;;;5.51;83.34
31717;BME280;18301;51.076;17.046;2023-04-08T06:15:35;100686.84;;;5.63;83.32
31717;BME280;18301;51.076;17.046;2023-04-08T06:20:37;100694.66;;;5.68;83.17
31717;BME280;18301;51.076;17.046;2023-04-08T06:25:38;100705.28;;;5.69;83.78
31717;BME280;18301;51.076;17.046;2023-04-08T06:30:39;100709.13;;;5.83;82.22
31717;BME280;18301;51.076;17.046;2023-04-08T06:35:41;100718.88;;;5.84;81.95
31717;BME280;18301;51.076;17.046;2023-04-08T06:40:43;100721.72;;;5.81;81.23
31717;BME280;18301;51.076;17.046;2023-04-08T06:45:44;100727.22;;;5.77;80.18
31717;BME280;18301;51.076;17.046;2023-04-08T06:50:46;100735.66;;;6.06;79.04
31717;BME280;18301;51.076;17.046;2023-04-08T06:55:47;100739.94;;;5.91;80.67
31717;BME280;18301;51.076;17.046;2023-04-08T07:00:49;100749.91;;;5.88;80.96
31717;BME280;18301;51.076;17.046;2023-04-08T07:05:51;100749.53;;;6.14;80.71
31717;BME280;18301;51.076;17.046;2023-04-08T07:10:53;100753.19;;;6.31;79.59
31717;BME280;18301;51.076;17.046;2023-04-08T07:15:54;100759.34;;;6.33;79.43
31717;BME280;18301;51.076;17.046;2023-04-08T07:20:56;100765.81;;;6.29;80.43
31717;BME280;18301;51.076;17.046;2023-04-08T07:26:04;100777.94;;;6.36;76.57
31717;BME280;18301;51.076;17.046;2023-04-08T07:31:14;100777.09;;;6.35;76.33
31717;BME280;18301;51.076;17.046;2023-04-08T07:36:16;100788.22;;;6.45;77.15
31717;BME280;18301;51.076;17.046;2023-04-08T07:41:18;100785.69;;;6.59;76.30
31717;BME280;18301;51.076;17.046;2023-04-08T07:46:21;100796.44;;;6.59;75.31
31717;BME280;18301;51.076;17.046;2023-04-08T07:51:22;100796.28;;;6.62;75.24
31717;BME280;18301;51.076;17.046;2023-04-08T07:56:24;100808.09;;;6.76;74.33
31717;BME280;18301;51.076;17.046;2023-04-08T08:01:26;100807.94;;;6.96;74.73
31717;BME280;18301;51.076;17.046;2023-04-08T08:06:31;100816.94;;;6.78;75.29
31717;BME280;18301;51.076;17.046;2023-04-08T08:11:32;100816.53;;;7.03;74.39
31717;BME280;18301;51.076;17.046;2023-04-08T08:16:34;100814.97;;;6.81;74.29
31717;BME280;18301;51.076;17.046;2023-04-08T08:21:36;100819.47;;;6.81;74.52
31717;BME280;18301;51.076;17.046;2023-04-08T08:26:41;100825.53;;;6.84;75.04
31717;BME280;18301;51.076;17.046;2023-04-08T08:31:45;100824.41;;;6.88;74.59
31717;BME280;18301;51.076;17.046;2023-04-08T08:36:48;100829.72;;;6.90;73.57
31717;BME280;18301;51.076;17.046;2023-04-08T08:41:50;100835.53;;;6.98;74.27
31717;BME280;18301;51.076;17.046;2023-04-08T08:46:52;100837.63;;;7.26;73.19
31717;BME280;18301;51.076;17.046;2023-04-08T08:51:54;100834.19;;;7.07;74.70
31717;BME280;18301;51.076;17.046;2023-04-08T08:56:56;100842.28;;;7.40;74.19
31717;BME280;18301;51.076;17.046;2023-04-08T09:01:57;100846.22;;;7.50;73.65
31717;BME280;18301;51.076;17.046;2023-04-08T09:07:09;100858.72;;;7.51;74.22
31717;BME280;18301;51.076;17.046;2023-04-08T09:12:11;100856.03;;;7.51;73.00
31717;BME280;18301;51.076;17.046;2023-04-08T09:17:14;100868.66;;;7.49;73.55
31717;BME280;18301;51.076;17.046;2023-04-08T09:22:16;100878.09;;;7.56;73.23
31717;BME280;18301;51.076;17.046;2023-04-08T09:27:32;100871.47;;;7.64;72.87
31717;BME280;18301;51.076;17.046;2023-04-08T09:32:46;100884.25;;;7.76;72.14
31717;BME280;18301;51.076;17.046;2023-04-08T09:37:49;100881.91;;;7.86;71.95
31717;BME280;18301;51.076;17.046;2023-04-08T09:42:52;100872.22;;;7.99;70.88
31717;BME280;18301;51.076;17.046;2023-04-08T09:48:19;100880.91;;;8.04;72.53
31717;BME280;18301;51.076;17.046;2023-04-08T09:53:35;100877.41;;;8.18;71.82
31717;BME280;18301;51.076;17.046;2023-04-08T09:58:41;100876.72;;;8.62;69.14
31717;BME280;18301;51.076;17.046;2023-04-08T10:03:47;100891.00;;;8.48;69.04
31717;BME280;18301;51.076;17.046;2023-04-08T10:08:50;100895.66;;;8.28;69.69
31717;BME280;18301;51.076;17.046;2023-04-08T10:13:52;100901.56;;;8.35;70.71
31717;BME280;18301;51.076;17.046;2023-04-08T10:18:54;100896.25;;;8.34;70.45
31717;BME280;18301;51.076;17.046;2023-04-08T10:23:57;100897.22;;;8.48;70.06
31717;BME280;18301;51.076;17.046;2023-04-08T10:34:21;100911.13;;;8.57;68.71
31717;BME280;18301;51.076;17.046;2023-04-08T10:39:24;100900.88;;;8.63;69.99
31717;BME280;18301;51.076;17.046;2023-04-08T10:44:27;100892.47;;;8.99;69.91
31717;BME280;18301;51.076;17.046;2023-04-08T10:49:32;100890.63;;;9.30;67.10
31717;BME280;18301;51.076;17.046;2023-04-08T10:54:35;100902.00;;;9.05;68.48
31717;BME280;18301;51.076;17.046;2023-04-08T10:59:37;100901.97;;;9.21;65.65
31717;BME280;18301;51.076;17.046;2023-04-08T11:04:42;100907.16;;;9.24;67.86
31717;BME280;18301;51.076;17.046;2023-04-08T11:09:44;100902.19;;;9.47;67.77
31717;BME280;18301;51.076;17.046;2023-04-08T11:14:46;100899.72;;;9.58;68.61
31717;BME280;18301;51.076;17.046;2023-04-08T11:19:51;100887.00;;;9.74;66.12
31717;BME280;18301;51.076;17.046;2023-04-08T11:24:54;100903.59;;;9.82;66.03
31717;BME280;18301;51.076;17.046;2023-04-08T11:29:56;100899.53;;;9.89;66.10
31717;BME280;18301;51.076;17.046;2023-04-08T11:34:59;100900.47;;;10.03;65.70
31717;BME280;18301;51.076;17.046;2023-04-08T11:40:08;100882.22;;;9.79;65.39
31717;BME280;18301;51.076;17.046;2023-04-08T11:45:11;100895.66;;;9.94;64.49
31717;BME280;18301;51.076;17.046;2023-04-08T11:50:25;100902.63;;;9.98;65.85
31717;BME280;18301;51.076;17.046;2023-04-08T11:55:30;100901.03;;;10.36;64.67
31717;BME280;18301;51.076;17.046;2023-04-08T12:00:32;100892.94;;;10.36;64.42
31717;BME280;18301;51.076;17.046;2023-04-08T12:05:34;100905.88;;;10.03;62.27
31717;BME280;18301;51.076;17.046;2023-04-08T12:10:36;100898.00;;;10.28;62.67
31717;BME280;18301;51.076;17.046;2023-04-08T12:15:38;100897.28;;;10.39;63.08
31717;BME280;18301;51.076;17.046;2023-04-08T12:20:39;100895.00;;;10.60;62.25
31717;BME280;18301;51.076;17.046;2023-04-08T12:25:40;100894.81;;;10.63;63.01
31717;BME280;18301;51.076;17.046;2023-04-08T12:30:42;100892.97;;;10.91;63.00
31717;BME280;18301;51.076;17.046;2023-04-08T12:35:43;100898.84;;;11.10;61.90
31717;BME280;18301;51.076;17.046;2023-04-08T12:40:45;100893.25;;;11.26;60.41
31717;BME280;18301;51.076;17.046;2023-04-08T12:45:49;100893.59;;;11.34;59.98
31717;BME280;18301;51.076;17.046;2023-04-08T12:50:51;100891.34;;;11.41;59.19
31717;BME280;18301;51.076;17.046;2023-04-08T12:55:53;100877.47;;;11.33;59.92
31717;BME280;18301;51.076;17.046;2023-04-08T13:00:57;100873.63;;;11.37;61.00
31717;BME280;18301;51.076;17.046;2023-04-08T13:05:59;100874.69;;;11.60;58.79
31717;BME280;18301;51.076;17.046;2023-04-08T13:11:00;100871.97;;;11.47;58.07
31717;BME280;18301;51.076;17.046;2023-04-08T13:16:02;100874.25;;;11.27;59.40
31717;BME280;18301;51.076;17.046;2023-04-08T13:21:03;100874.91;;;11.57;61.16
31717;BME280;18301;51.076;17.046;2023-04-08T13:26:05;100865.63;;;11.73;56.98
31717;BME280;18301;51.076;17.046;2023-04-08T13:31:06;100861.28;;;11.84;58.38
31717;BME280;18301;51.076;17.046;2023-04-08T13:36:08;100870.03;;;11.74;56.66
31717;BME280;18301;51.076;17.046;2023-04-08T13:41:09;100875.03;;;11.42;58.56
31717;BME280;18301;51.076;17.046;2023-04-08T13:46:11;100871.00;;;11.48;57.53
31717;BME280;18301;51.076;17.046;2023-04-08T13:51:12;100864.19;;;11.81;59.09
31717;BME280;18301;51.076;17.046;2023-04-08T13:56:14;100869.81;;;12.03;56.57
31717;BME280;18301;51.076;17.046;2023-04-08T14:01:16;100869.47;;;11.82;57.83
31717;BME280;18301;51.076;17.046;2023-04-08T14:06:17;100877.09;;;11.90;55.91
31717;BME280;18301;51.076;17.046;2023-04-08T14:11:19;100868.09;;;11.77;56.95
31717;BME280;18301;51.076;17.046;2023-04-08T14:16:21;100871.78;;;12.01;58.01
31717;BME280;18301;51.076;17.046;2023-04-08T14:21:23;100862.56;;;11.91;57.44
31717;BME280;18301;51.076;17.046;2023-04-08T14:26:25;100865.28;;;11.91;55.27
31717;BME280;18301;51.076;17.046;2023-04-08T14:31:26;100866.03;;;11.93;55.88
31717;BME280;18301;51.076;17.046;2023-04-08T14:36:28;100864.97;;;11.83;56.97
31717;BME280;18301;51.076;17.046;2023-04-08T14:41:31;100873.06;;;11.83;56.12
31717;BME280;18301;51.076;17.046;2023-04-08T14:46:33;100870.69;;;11.91;56.93
31717;BME280;18301;51.076;17.046;2023-04-08T14:51:34;100873.06;;;11.83;56.99
31717;BME280;18301;51.076;17.046;2023-04-08T14:56:38;100872.72;;;12.00;57.08
31717;BME280;18301;51.076;17.046;2023-04-08T15:01:39;100865.50;;;11.88;56.73
31717;BME280;18301;51.076;17.046;2023-04-08T15:06:41;100869.28;;;11.98;57.32
31717;BME280;18301;51.076;17.046;2023-04-08T15:11:44;100862.78;;;12.13;56.12
31717;BME280;18301;51.076;17.046;2023-04-08T15:16:46;100861.19;;;11.98;56.17
31717;BME280;18301;51.076;17.046;2023-04-08T15:21:47;100862.44;;;12.05;56.51
31717;BME280;18301;51.076;17.046;2023-04-08T15:26:49;100869.53;;;11.95;56.75
31717;BME280;18301;51.076;17.046;2023-04-08T15:31:50;100877.31;;;11.87;56.75
31717;BME280;18301;51.076;17.046;2023-04-08T15:36:53;100881.72;;;11.75;56.64
31717;BME280;18301;51.076;17.046;2023-04-08T15:41:57;100881.50;;;11.65;57.00
31717;BME280;18301;51.076;17.046;2023-04-08T15:46:58;100884.44;;;11.62;57.45
31717;BME280;18301;51.076;17.046;2023-04-08T15:52:00;100882.03;;;11.45;58.23
31717;BME280;18301;51.076;17.046;2023-04-08T15:57:02;100880.75;;;11.63;57.71
31717;BME280;18301;51.076;17.046;2023-04-08T16:02:03;100874.03;;;11.56;58.55
31717;BME280;18301;51.076;17.046;2023-04-08T16:07:05;100879.03;;;11.62;58.69
31717;BME280;18301;51.076;17.046;2023-04-08T16:12:06;100886.34;;;11.60;58.65
31717;BME280;18301;51.076;17.046;2023-04-08T16:17:08;100888.75;;;11.78;58.06
31717;BME280;18301;51.076;17.046;2023-04-08T16:22:09;100884.84;;;11.56;58.32
31717;BME280;18301;51.076;17.046;2023-04-08T16:27:11;100891.34;;;11.53;58.59
31717;BME280;18301;51.076;17.046;2023-04-08T16:32:13;100893.09;;;11.55;58.83
31717;BME280;18301;51.076;17.046;2023-04-08T16:37:14;100899.34;;;11.42;58.64
31717;BME280;18301;51.076;17.046;2023-04-08T16:42:16;100895.00;;;11.40;59.25
31717;BME280;18301;51.076;17.046;2023-04-08T16:47:17;100904.97;;;11.39;59.34
31717;BME280;18301;51.076;17.046;2023-04-08T16:52:19;100908.31;;;11.43;59.37
31717;BME280;18301;51.076;17.046;2023-04-08T16:57:21;100919.22;;;11.41;59.79
31717;BME280;18301;51.076;17.046;2023-04-08T17:02:22;100914.88;;;11.39;60.12
31717;BME280;18301;51.076;17.046;2023-04-08T17:07:24;100915.66;;;11.41;60.35
31717;BME280;18301;51.076;17.046;2023-04-08T17:12:28;100917.28;;;11.43;60.25
31717;BME280;18301;51.076;17.046;2023-04-08T17:17:29;100921.81;;;11.43;60.86
31717;BME280;18301;51.076;17.046;2023-04-08T17:22:31;100918.91;;;11.46;60.67
31717;BME280;18301;51.076;17.046;2023-04-08T17:27:33;100926.78;;;11.36;60.67
31717;BME280;18301;51.076;17.046;2023-04-08T17:32:34;100933.59;;;11.42;60.22
31717;BME280;18301;51.076;17.046;2023-04-08T17:37:36;100934.34;;;11.31;60.53
31717;BME280;18301;51.076;17.046;2023-04-08T17:42:38;100932.03;;;11.12;61.06
31717;BME280;18301;51.076;17.046;2023-04-08T17:47:42;100943.78;;;11.11;61.00
31717;BME280;18301;51.076;17.046;2023-04-08T17:52:44;100932.84;;;11.00;61.69
31717;BME280;18301;51.076;17.046;2023-04-08T17:57:49;100937.69;;;10.95;61.95
31717;BME280;18301;51.076;17.046;2023-04-08T18:02:51;100945.53;;;10.85;62.44
31717;BME280;18301;51.076;17.046;2023-04-08T18:07:53;100952.66;;;10.86;62.26
31717;BME280;18301;51.076;17.046;2023-04-08T18:12:54;100954.50;;;10.86;62.89
31717;BME280;18301;51.076;17.046;2023-04-08T18:18:11;100966.09;;;10.73;62.82
31717;BME280;18301;51.076;17.046;2023-04-08T18:23:18;100971.31;;;10.76;63.08
31717;BME280;18301;51.076;17.046;2023-04-08T18:28:19;100973.44;;;10.71;63.14
31717;BME280;18301;51.076;17.046;2023-04-08T18:33:22;100971.09;;;10.79;63.18
31717;BME280;18301;51.076;17.046;2023-04-08T18:38:24;100978.63;;;10.74;63.46
31717;BME280;18301;51.076;17.046;2023-04-08T18:43:26;100978.81;;;10.71;63.41
31717;BME280;18301;51.076;17.046;2023-04-08T18:48:28;100978.34;;;10.79;63.54
31717;BME280;18301;51.076;17.046;2023-04-08T18:53:30;100984.44;;;10.68;63.99
31717;BME280;18301;51.076;17.046;2023-04-08T18:58:32;100991.72;;;10.80;63.83
31717;BME280;18301;51.076;17.046;2023-04-08T19:03:34;100986.19;;;10.69;64.15
31717;BME280;18301;51.076;17.046;2023-04-08T19:08:36;100992.63;;;10.67;64.37
31717;BME280;18301;51.076;17.046;2023-04-08T19:13:38;100992.31;;;10.71;64.52
31717;BME280;18301;51.076;17.046;2023-04-08T19:18:40;100981.72;;;10.68;64.38
31717;BME280;18301;51.076;17.046;2023-04-08T19:23:41;100987.44;;;10.64;64.98
31717;BME280;18301;51.076;17.046;2023-04-08T19:28:43;100980.19;;;10.64;65.09
31717;BME280;18301;51.076;17.046;2023-04-08T19:33:44;100983.09;;;10.61;65.12
31717;BME280;18301;51.076;17.046;2023-04-08T19:38:46;100990.72;;;10.54;65.32
31717;BME280;18301;51.076;17.046;2023-04-08T19:43:48;100987.25;;;10.52;65.73
31717;BME280;18301;51.076;17.046;2023-04-08T19:48:49;100989.69;;;10.43;65.94
31717;BME280;18301;51.076;17.046;2023-04-08T19:53:51;100986.13;;;10.42;66.41
31717;BME280;18301;51.076;17.046;2023-04-08T19:58:53;100998.34;;;10.48;66.30
31717;BME280;18301;51.076;17.046;2023-04-08T20:03:54;100993.94;;;10.32;67.07
31717;BME280;18301;51.076;17.046;2023-04-08T20:08:56;100992.75;;;10.36;66.91
31717;BME280;18301;51.076;17.046;2023-04-08T20:14:05;100992.56;;;10.25;67.52
31717;BME280;18301;51.076;17.046;2023-04-08T20:19:06;100990.34;;;10.18;68.04
31717;BME280;18301;51.076;17.046;2023-04-08T20:24:08;100994.88;;;10.17;67.73
31717;BME280;18301;51.076;17.046;2023-04-08T20:29:09;100994.66;;;10.06;68.50
31717;BME280;18301;51.076;17.046;2023-04-08T20:34:11;100989.66;;;10.14;68.38
31717;BME280;18301;51.076;17.046;2023-04-08T20:39:13;100991.19;;;10.18;68.65
31717;BME280;18301;51.076;17.046;2023-04-08T20:44:14;100992.63;;;10.09;68.68
31717;BME280;18301;51.076;17.046;2023-04-08T20:49:16;100987.53;;;10.05;69.18
31717;BME280;18301;51.076;17.046;2023-04-08T20:54:18;100991.19;;;10.18;69.21
31717;BME280;18301;51.076;17.046;2023-04-08T20:59:20;100999.22;;;10.20;68.91
31717;BME280;18301;51.076;17.046;2023-04-08T21:04:21;101002.19;;;10.15;68.92
31717;BME280;18301;51.076;17.046;2023-04-08T21:09:24;100997.16;;;10.09;68.98
31717;BME280;18301;51.076;17.046;2023-04-08T21:14:26;100992.63;;;10.09;69.16
31717;BME280;18301;51.076;17.046;2023-04-08T21:19:27;100997.47;;;10.04;69.45
31717;BME280;18301;51.076;17.046;2023-04-08T21:24:29;100996.41;;;10.07;68.88
31717;BME280;18301;51.076;17.046;2023-04-08T21:29:31;100994.84;;;9.88;69.71
31717;BME280;18301;51.076;17.046;2023-04-08T21:34:32;100994.16;;;9.85;69.92
31717;BME280;18301;51.076;17.046;2023-04-08T21:39:34;100993.09;;;9.87;69.68
31717;BME280;18301;51.076;17.046;2023-04-08T21:44:36;101002.16;;;9.86;69.86
31717;BME280;18301;51.076;17.046;2023-04-08T21:49:37;100995.59;;;9.76;70.41
31717;BME280;18301;51.076;17.046;2023-04-08T21:54:39;100987.53;;;9.76;69.92
31717;BME280;18301;51.076;17.046;2023-04-08T21:59:40;100993.66;;;9.78;69.68
31717;BME280;18301;51.076;17.046;2023-04-08T22:04:42;100992.34;;;9.85;69.37
31717;BME280;18301;51.076;17.046;2023-04-08T22:09:43;100982.13;;;9.90;69.21
31717;BME280;18301;51.076;17.046;2023-04-08T22:14:45;100975.22;;;9.86;69.42
31717;BME280;18301;51.076;17.046;2023-04-08T22:19:46;100970.19;;;9.80;69.57
31717;BME280;18301;51.076;17.046;2023-04-08T22:24:47;100972.28;;;9.75;69.56
31717;BME280;18301;51.076;17.046;2023-04-08T22:29:49;100971.31;;;9.62;69.52
31717;BME280;18301;51.076;17.046;2023-04-08T22:34:51;100972.47;;;9.58;69.78
31717;BME280;18301;51.076;17.046;2023-04-08T22:39:52;100966.41;;;9.68;69.91
31717;BME280;18301;51.076;17.046;2023-04-08T22:44:53;100965.66;;;9.81;69.63
31717;BME280;18301;51.076;17.046;2023-04-08T22:49:55;100970.75;;;9.71;69.54
31717;BME280;18301;51.076;17.046;2023-04-08T22:54:57;100969.41;;;9.64;70.00
31717;BME280;18301;51.076;17.046;2023-04-08T22:59:58;100981.03;;;9.64;69.89
31717;BME280;18301;51.076;17.046;2023-04-08T23:05:02;100975.16;;;9.58;70.05
31717;BME280;18301;51.076;17.046;2023-04-08T23:10:04;100979.78;;;9.56;70.04
31717;BME280;18301;51.076;17.046;2023-04-08T23:15:06;100973.16;;;9.61;69.96
31717;BME280;18301;51.076;17.046;2023-04-08T23:20:07;100975.25;;;9.56;70.38
31717;BME280;18301;51.076;17.046;2023-04-08T23:25:09;100979.53;;;9.44;70.52
31717;BME280;18301;51.076;17.046;2023-04-08T23:30:11;100971.38;;;9.46;70.34
31717;BME280;18301;51.076;17.046;2023-04-08T23:35:12;100972.91;;;9.50;70.56
31717;BME280;18301;51.076;17.046;2023-04-08T23:40:14;100957.13;;;9.44;70.37
31717;BME280;18301;51.076;17.046;2023-04-08T23:45:15;100954.53;;;9.42;70.45
31717;BME280;18301;51.076;17.046;2023-04-08T23:50:17;100953.00;;;9.53;70.28
31717;BME280;18301;51.076;17.046;2023-04-08T23:55:20;100948.81;;;9.33;70.48
